Pagina principale
METAR-TAF:

METAR-TAF

Aeroporti :

Quakertown Airport

Quakertown, Pennsylvania, Stati Uniti

latitudine: 40-26-06N, longitudine: 075-22-54W, altezza: 160 m

Osservazione

Il bollettino è stato emesso 23 minuti fa, alle 10:35 UTC
Vento calmo
Temperature 13°C
Umidità 100%
Pressione 1023 hPa
Visibilità: 16.1 km
Poco nuvoloso ad un'altezza di 200 ft
Poco nuvoloso ad un'altezza di 700 ft

METAR: KUKT 231035Z AUTO 00000KT 10SM FEW002 FEW007 13/13 A3021 RMK A01

Ora: 06:58 (10:58 UTC)


TAF: mancante

Osservazioni e previsioni meteorologiche di più di 4000 aeroporti (messaggi METAR e TAF).

Le stazioni disponibili sono rappresentate dai dischi gialli e rossi sulla carta.

Puntare il mouse per vedere il nome della stazione.

Clicca sopra per visualizzare le osservazioni e previsioni meteorologiche.

Per cambiare la mappa : fare clic sui pulsanti verdi con una croce nera per ingrandire, il pulsante verde con un trattino per diminuire, o sulla freccia verde per le mappe adiacenti.


METAR-TAF: